Atlanta, Georgia
Traffic Map
Current Weather Conditions
Atlanta, Georgia
Overcast
Overcast
52°
Feels Like: 52°
Wind Chill: 52° Ceiling: 800
Heat Index: 52° Visibility: 10mi
Dew Point: 47° Wind: 14mph
Humidity: 83% Direction: 320° (NW)
Pressure: 29.74in Gusts: 0mph
Raw Report DataKATL 270752Z 32012KT 10SM BKN008 OVC030 11/08 A2974 RMK AO2 RAB28E44 SLP066 CIG 007V010 P0000 T01110083
Traffic Incident Summary
Active as of:
Severity:
Category:
InformationThere was an issue retrieving the traffic information for this location. Please try a different location or try again shortly.
Advertisements
Track Severe Weather on mobile